Terminal Aerodrome Forecast
Issued by NWS

Home | Current Version | Previous Version | Text Only | Print | Product List | Glossary On
Versions: 1 2 3 4 5 6 7 8 9 10 11 12 13 14 15 16
848
FTUS41 KPBZ 080524
TAFLBE
TAF
KLBE 080524Z 0806/0906 19005KT P6SM BKN250
     FM082000 14005KT 6SM -RA OVC035
     FM082300 16005KT 3SM -RASN OVC025
     FM090100 20005KT 1 1/2SM -SN BR OVC015=

USA.gov is the U.S. government's official web portal to all federal, state and local government web resources and services.